sensor_id;sensor_type;location;lat;lon;timestamp;P1;durP1;ratioP1;P2;durP2;ratioP2
51718;SDS011;37795;53.236;5.704;2022-11-15T00:00:24;21.80;;;18.92;;
51718;SDS011;37795;53.236;5.704;2022-11-15T00:02:49;21.83;;;19.40;;
51718;SDS011;37795;53.236;5.704;2022-11-15T00:05:17;20.60;;;18.35;;
51718;SDS011;37795;53.236;5.704;2022-11-15T00:07:42;22.87;;;19.33;;
51718;SDS011;37795;53.236;5.704;2022-11-15T00:10:08;23.53;;;20.07;;
51718;SDS011;37795;53.236;5.704;2022-11-15T00:12:34;22.02;;;18.92;;
51718;SDS011;37795;53.236;5.704;2022-11-15T00:14:59;22.63;;;20.08;;
51718;SDS011;37795;53.236;5.704;2022-11-15T00:17:25;19.92;;;17.10;;
51718;SDS011;37795;53.236;5.704;2022-11-15T00:19:51;21.20;;;18.90;;
51718;SDS011;37795;53.236;5.704;2022-11-15T00:22:16;19.77;;;17.67;;
51718;SDS011;37795;53.236;5.704;2022-11-15T00:24:42;22.23;;;19.27;;
51718;SDS011;37795;53.236;5.704;2022-11-15T00:27:08;23.83;;;18.80;;
51718;SDS011;37795;53.236;5.704;2022-11-15T00:29:33;21.33;;;18.75;;
51718;SDS011;37795;53.236;5.704;2022-11-15T00:31:59;23.37;;;18.83;;
51718;SDS011;37795;53.236;5.704;2022-11-15T00:34:25;24.17;;;19.98;;
51718;SDS011;37795;53.236;5.704;2022-11-15T00:36:50;24.15;;;20.73;;
51718;SDS011;37795;53.236;5.704;2022-11-15T00:39:16;22.30;;;19.87;;
51718;SDS011;37795;53.236;5.704;2022-11-15T00:41:42;22.37;;;19.50;;
51718;SDS011;37795;53.236;5.704;2022-11-15T00:44:08;23.00;;;20.05;;
51718;SDS011;37795;53.236;5.704;2022-11-15T00:46:33;23.57;;;21.07;;
51718;SDS011;37795;53.236;5.704;2022-11-15T00:48:59;23.65;;;20.88;;
51718;SDS011;37795;53.236;5.704;2022-11-15T00:51:25;24.13;;;20.33;;
51718;SDS011;37795;53.236;5.704;2022-11-15T00:53:50;24.83;;;20.57;;
51718;SDS011;37795;53.236;5.704;2022-11-15T00:56:16;25.53;;;20.43;;
51718;SDS011;37795;53.236;5.704;2022-11-15T00:58:41;26.98;;;22.23;;
51718;SDS011;37795;53.236;5.704;2022-11-15T01:01:08;26.55;;;21.23;;
51718;SDS011;37795;53.236;5.704;2022-11-15T01:03:35;26.05;;;20.80;;
51718;SDS011;37795;53.236;5.704;2022-11-15T01:06:01;23.70;;;21.13;;
51718;SDS011;37795;53.236;5.704;2022-11-15T01:08:27;25.55;;;21.88;;
51718;SDS011;37795;53.236;5.704;2022-11-15T01:10:53;24.70;;;20.57;;
51718;SDS011;37795;53.236;5.704;2022-11-15T01:13:19;26.10;;;22.33;;
51718;SDS011;37795;53.236;5.704;2022-11-15T01:15:44;23.75;;;20.35;;
51718;SDS011;37795;53.236;5.704;2022-11-15T01:18:10;23.80;;;21.20;;
51718;SDS011;37795;53.236;5.704;2022-11-15T01:20:45;26.40;;;22.17;;
51718;SDS011;37795;53.236;5.704;2022-11-15T01:23:10;27.73;;;23.02;;
51718;SDS011;37795;53.236;5.704;2022-11-15T01:25:36;25.40;;;22.70;;
51718;SDS011;37795;53.236;5.704;2022-11-15T01:28:02;28.55;;;23.17;;
51718;SDS011;37795;53.236;5.704;2022-11-15T01:30:27;27.33;;;24.42;;
51718;SDS011;37795;53.236;5.704;2022-11-15T01:32:53;28.50;;;22.83;;
51718;SDS011;37795;53.236;5.704;2022-11-15T01:35:19;26.95;;;24.13;;
51718;SDS011;37795;53.236;5.704;2022-11-15T01:37:45;28.58;;;24.70;;
51718;SDS011;37795;53.236;5.704;2022-11-15T01:40:10;27.58;;;23.23;;
51718;SDS011;37795;53.236;5.704;2022-11-15T01:42:36;27.73;;;24.77;;
51718;SDS011;37795;53.236;5.704;2022-11-15T01:45:02;30.70;;;26.07;;
51718;SDS011;37795;53.236;5.704;2022-11-15T01:47:32;30.05;;;26.15;;
51718;SDS011;37795;53.236;5.704;2022-11-15T01:50:09;33.00;;;26.65;;
51718;SDS011;37795;53.236;5.704;2022-11-15T01:52:38;32.90;;;26.35;;
51718;SDS011;37795;53.236;5.704;2022-11-15T01:57:31;31.83;;;25.60;;
51718;SDS011;37795;53.236;5.704;2022-11-15T01:59:57;33.40;;;26.10;;
51718;SDS011;37795;53.236;5.704;2022-11-15T02:02:25;34.08;;;26.92;;
51718;SDS011;37795;53.236;5.704;2022-11-15T02:04:51;30.98;;;25.83;;
51718;SDS011;37795;53.236;5.704;2022-11-15T02:07:18;34.30;;;28.10;;
51718;SDS011;37795;53.236;5.704;2022-11-15T02:09:46;29.80;;;24.48;;
51718;SDS011;37795;53.236;5.704;2022-11-15T02:12:13;34.95;;;27.58;;
51718;SDS011;37795;53.236;5.704;2022-11-15T02:14:44;38.53;;;28.25;;
51718;SDS011;37795;53.236;5.704;2022-11-15T02:37:15;32.97;;;26.30;;
51718;SDS011;37795;53.236;5.704;2022-11-15T02:42:24;34.13;;;26.08;;
51718;SDS011;37795;53.236;5.704;2022-11-15T02:45:13;32.07;;;26.03;;
51718;SDS011;37795;53.236;5.704;2022-11-15T02:47:45;33.65;;;27.70;;
51718;SDS011;37795;53.236;5.704;2022-11-15T02:50:18;33.03;;;26.70;;
51718;SDS011;37795;53.236;5.704;2022-11-15T02:52:50;27.70;;;24.05;;
51718;SDS011;37795;53.236;5.704;2022-11-15T02:55:29;31.85;;;26.85;;
51718;SDS011;37795;53.236;5.704;2022-11-15T02:58:18;31.42;;;26.05;;
51718;SDS011;37795;53.236;5.704;2022-11-15T03:06:38;37.13;;;28.60;;
51718;SDS011;37795;53.236;5.704;2022-11-15T03:11:58;38.83;;;29.88;;
51718;SDS011;37795;53.236;5.704;2022-11-15T03:14:33;40.75;;;30.58;;
51718;SDS011;37795;53.236;5.704;2022-11-15T03:19:47;41.73;;;30.53;;
51718;SDS011;37795;53.236;5.704;2022-11-15T03:22:16;42.80;;;31.17;;
51718;SDS011;37795;53.236;5.704;2022-11-15T03:24:45;43.70;;;32.23;;
51718;SDS011;37795;53.236;5.704;2022-11-15T03:27:16;46.07;;;31.63;;
51718;SDS011;37795;53.236;5.704;2022-11-15T03:29:50;50.17;;;33.33;;
51718;SDS011;37795;53.236;5.704;2022-11-15T03:32:23;48.83;;;35.20;;
51718;SDS011;37795;53.236;5.704;2022-11-15T03:37:24;46.13;;;31.90;;
51718;SDS011;37795;53.236;5.704;2022-11-15T03:40:02;49.63;;;32.25;;
51718;SDS011;37795;53.236;5.704;2022-11-15T03:42:34;46.20;;;31.77;;
51718;SDS011;37795;53.236;5.704;2022-11-15T03:45:10;55.08;;;33.80;;
51718;SDS011;37795;53.236;5.704;2022-11-15T03:47:39;42.50;;;29.00;;
51718;SDS011;37795;53.236;5.704;2022-11-15T03:50:15;47.95;;;32.20;;
51718;SDS011;37795;53.236;5.704;2022-11-15T03:52:44;54.58;;;33.08;;
51718;SDS011;37795;53.236;5.704;2022-11-15T03:55:13;48.85;;;32.67;;
51718;SDS011;37795;53.236;5.704;2022-11-15T03:57:41;51.38;;;32.95;;
51718;SDS011;37795;53.236;5.704;2022-11-15T04:00:07;51.90;;;33.23;;
51718;SDS011;37795;53.236;5.704;2022-11-15T04:02:34;56.23;;;35.07;;
51718;SDS011;37795;53.236;5.704;2022-11-15T04:04:59;50.60;;;33.33;;
51718;SDS011;37795;53.236;5.704;2022-11-15T04:07:25;51.30;;;33.10;;
51718;SDS011;37795;53.236;5.704;2022-11-15T04:09:51;52.05;;;35.38;;
51718;SDS011;37795;53.236;5.704;2022-11-15T04:12:32;57.28;;;36.65;;
51718;SDS011;37795;53.236;5.704;2022-11-15T04:15:00;53.78;;;33.97;;
51718;SDS011;37795;53.236;5.704;2022-11-15T04:17:34;55.50;;;34.65;;
51718;SDS011;37795;53.236;5.704;2022-11-15T04:20:02;57.70;;;36.37;;
51718;SDS011;37795;53.236;5.704;2022-11-15T04:22:48;58.67;;;35.60;;
51718;SDS011;37795;53.236;5.704;2022-11-15T04:25:35;55.88;;;35.13;;
51718;SDS011;37795;53.236;5.704;2022-11-15T04:28:01;55.42;;;35.25;;
51718;SDS011;37795;53.236;5.704;2022-11-15T04:30:27;55.17;;;35.13;;
51718;SDS011;37795;53.236;5.704;2022-11-15T04:32:52;58.37;;;34.97;;
51718;SDS011;37795;53.236;5.704;2022-11-15T04:35:18;59.53;;;36.03;;
51718;SDS011;37795;53.236;5.704;2022-11-15T04:37:44;56.85;;;35.15;;
51718;SDS011;37795;53.236;5.704;2022-11-15T04:40:09;54.03;;;34.80;;
51718;SDS011;37795;53.236;5.704;2022-11-15T04:42:35;60.70;;;34.00;;
51718;SDS011;37795;53.236;5.704;2022-11-15T04:45:01;57.22;;;35.28;;
51718;SDS011;37795;53.236;5.704;2022-11-15T04:47:26;55.80;;;33.67;;
51718;SDS011;37795;53.236;5.704;2022-11-15T04:49:53;54.17;;;34.08;;
51718;SDS011;37795;53.236;5.704;2022-11-15T04:52:18;52.03;;;34.10;;
51718;SDS011;37795;53.236;5.704;2022-11-15T04:54:44;50.78;;;30.35;;
51718;SDS011;37795;53.236;5.704;2022-11-15T04:57:10;50.85;;;33.97;;
51718;SDS011;37795;53.236;5.704;2022-11-15T04:59:35;52.50;;;32.87;;
51718;SDS011;37795;53.236;5.704;2022-11-15T05:02:01;47.97;;;31.85;;
51718;SDS011;37795;53.236;5.704;2022-11-15T05:04:27;49.22;;;30.25;;
51718;SDS011;37795;53.236;5.704;2022-11-15T05:06:52;44.30;;;30.37;;
51718;SDS011;37795;53.236;5.704;2022-11-15T05:09:18;42.07;;;30.97;;
51718;SDS011;37795;53.236;5.704;2022-11-15T05:11:45;50.05;;;29.83;;
51718;SDS011;37795;53.236;5.704;2022-11-15T05:14:11;45.17;;;29.40;;
51718;SDS011;37795;53.236;5.704;2022-11-15T05:16:37;44.75;;;28.45;;
51718;SDS011;37795;53.236;5.704;2022-11-15T05:19:03;48.55;;;30.25;;
51718;SDS011;37795;53.236;5.704;2022-11-15T05:21:29;55.83;;;33.30;;
51718;SDS011;37795;53.236;5.704;2022-11-15T05:23:55;49.80;;;30.47;;
51718;SDS011;37795;53.236;5.704;2022-11-15T05:26:21;47.33;;;31.83;;
51718;SDS011;37795;53.236;5.704;2022-11-15T05:28:51;48.67;;;32.88;;
51718;SDS011;37795;53.236;5.704;2022-11-15T05:31:19;53.55;;;32.80;;
51718;SDS011;37795;53.236;5.704;2022-11-15T05:33:44;55.37;;;32.27;;
51718;SDS011;37795;53.236;5.704;2022-11-15T05:36:12;53.83;;;33.95;;
51718;SDS011;37795;53.236;5.704;2022-11-15T05:38:58;54.97;;;34.40;;
51718;SDS011;37795;53.236;5.704;2022-11-15T05:41:29;64.37;;;35.97;;
51718;SDS011;37795;53.236;5.704;2022-11-15T05:43:59;59.95;;;34.42;;
51718;SDS011;37795;53.236;5.704;2022-11-15T05:46:26;59.20;;;34.55;;
51718;SDS011;37795;53.236;5.704;2022-11-15T05:48:53;55.20;;;33.08;;
51718;SDS011;37795;53.236;5.704;2022-11-15T05:51:19;58.97;;;34.50;;
51718;SDS011;37795;53.236;5.704;2022-11-15T05:53:47;62.83;;;35.28;;
51718;SDS011;37795;53.236;5.704;2022-11-15T05:56:13;61.70;;;35.53;;
51718;SDS011;37795;53.236;5.704;2022-11-15T05:58:40;54.10;;;33.10;;
51718;SDS011;37795;53.236;5.704;2022-11-15T06:01:06;60.28;;;33.28;;
51718;SDS011;37795;53.236;5.704;2022-11-15T06:03:32;56.87;;;33.70;;
51718;SDS011;37795;53.236;5.704;2022-11-15T06:05:58;56.42;;;34.60;;
51718;SDS011;37795;53.236;5.704;2022-11-15T06:08:23;56.50;;;32.70;;
51718;SDS011;37795;53.236;5.704;2022-11-15T06:10:49;59.30;;;33.50;;
51718;SDS011;37795;53.236;5.704;2022-11-15T06:13:15;54.88;;;32.80;;
51718;SDS011;37795;53.236;5.704;2022-11-15T06:15:40;54.08;;;32.88;;
51718;SDS011;37795;53.236;5.704;2022-11-15T06:18:06;48.73;;;30.77;;
51718;SDS011;37795;53.236;5.704;2022-11-15T06:20:32;50.53;;;32.55;;
51718;SDS011;37795;53.236;5.704;2022-11-15T06:22:58;45.22;;;30.20;;
51718;SDS011;37795;53.236;5.704;2022-11-15T06:25:25;47.53;;;31.20;;
51718;SDS011;37795;53.236;5.704;2022-11-15T06:27:52;45.53;;;30.30;;
51718;SDS011;37795;53.236;5.704;2022-11-15T06:30:18;50.73;;;30.37;;
51718;SDS011;37795;53.236;5.704;2022-11-15T06:32:44;48.80;;;30.07;;
51718;SDS011;37795;53.236;5.704;2022-11-15T06:35:10;43.55;;;29.10;;
51718;SDS011;37795;53.236;5.704;2022-11-15T06:37:36;45.97;;;31.43;;
51718;SDS011;37795;53.236;5.704;2022-11-15T06:40:01;52.83;;;34.50;;
51718;SDS011;37795;53.236;5.704;2022-11-15T06:42:27;55.90;;;34.53;;
51718;SDS011;37795;53.236;5.704;2022-11-15T06:44:53;52.47;;;35.67;;
51718;SDS011;37795;53.236;5.704;2022-11-15T06:47:19;51.97;;;31.90;;
51718;SDS011;37795;53.236;5.704;2022-11-15T06:49:44;58.88;;;37.30;;
51718;SDS011;37795;53.236;5.704;2022-11-15T06:59:19;66.97;;;42.58;;
51718;SDS011;37795;53.236;5.704;2022-11-15T07:01:44;73.33;;;46.33;;
51718;SDS011;37795;53.236;5.704;2022-11-15T07:04:10;62.00;;;40.67;;
51718;SDS011;37795;53.236;5.704;2022-11-15T07:06:36;57.40;;;36.63;;
51718;SDS011;37795;53.236;5.704;2022-11-15T07:09:02;53.30;;;36.22;;
51718;SDS011;37795;53.236;5.704;2022-11-15T07:11:28;67.93;;;40.28;;
51718;SDS011;37795;53.236;5.704;2022-11-15T07:13:54;55.60;;;39.10;;
51718;SDS011;37795;53.236;5.704;2022-11-15T07:16:19;61.85;;;38.67;;
51718;SDS011;37795;53.236;5.704;2022-11-15T07:18:45;58.20;;;36.58;;
51718;SDS011;37795;53.236;5.704;2022-11-15T07:21:11;62.43;;;38.20;;
51718;SDS011;37795;53.236;5.704;2022-11-15T07:23:37;49.20;;;32.30;;
51718;SDS011;37795;53.236;5.704;2022-11-15T07:26:04;58.63;;;39.88;;
51718;SDS011;37795;53.236;5.704;2022-11-15T07:28:30;57.38;;;37.03;;
51718;SDS011;37795;53.236;5.704;2022-11-15T07:30:56;56.13;;;39.10;;
51718;SDS011;37795;53.236;5.704;2022-11-15T07:33:21;54.43;;;38.77;;
51718;SDS011;37795;53.236;5.704;2022-11-15T07:35:47;55.72;;;37.92;;
51718;SDS011;37795;53.236;5.704;2022-11-15T07:38:13;64.38;;;40.47;;
51718;SDS011;37795;53.236;5.704;2022-11-15T07:40:44;55.97;;;37.25;;
51718;SDS011;37795;53.236;5.704;2022-11-15T07:43:10;60.22;;;36.67;;
51718;SDS011;37795;53.236;5.704;2022-11-15T07:45:40;53.93;;;38.00;;
51718;SDS011;37795;53.236;5.704;2022-11-15T07:48:10;57.10;;;41.75;;
51718;SDS011;37795;53.236;5.704;2022-11-15T07:50:36;62.45;;;40.33;;
51718;SDS011;37795;53.236;5.704;2022-11-15T07:53:02;53.90;;;36.93;;
51718;SDS011;37795;53.236;5.704;2022-11-15T07:55:28;53.77;;;40.40;;
51718;SDS011;37795;53.236;5.704;2022-11-15T07:58:27;60.58;;;42.53;;
51718;SDS011;37795;53.236;5.704;2022-11-15T08:00:46;51.13;;;36.40;;
51718;SDS011;37795;53.236;5.704;2022-11-15T08:03:13;51.53;;;35.67;;
51718;SDS011;37795;53.236;5.704;2022-11-15T08:05:40;52.72;;;36.55;;
51718;SDS011;37795;53.236;5.704;2022-11-15T08:08:07;50.70;;;37.47;;
51718;SDS011;37795;53.236;5.704;2022-11-15T08:10:34;44.35;;;34.50;;
51718;SDS011;37795;53.236;5.704;2022-11-15T08:13:01;46.40;;;33.00;;
51718;SDS011;37795;53.236;5.704;2022-11-15T08:15:28;52.00;;;36.57;;
51718;SDS011;37795;53.236;5.704;2022-11-15T08:17:55;40.25;;;32.97;;
51718;SDS011;37795;53.236;5.704;2022-11-15T08:20:27;43.78;;;33.70;;
51718;SDS011;37795;53.236;5.704;2022-11-15T08:23:00;43.65;;;32.67;;
51718;SDS011;37795;53.236;5.704;2022-11-15T08:25:28;42.08;;;31.67;;
51718;SDS011;37795;53.236;5.704;2022-11-15T08:27:56;50.63;;;31.65;;
51718;SDS011;37795;53.236;5.704;2022-11-15T08:30:23;45.83;;;32.20;;
51718;SDS011;37795;53.236;5.704;2022-11-15T08:32:49;41.45;;;29.85;;
51718;SDS011;37795;53.236;5.704;2022-11-15T08:35:17;40.47;;;29.97;;
51718;SDS011;37795;53.236;5.704;2022-11-15T08:37:43;44.23;;;31.73;;
51718;SDS011;37795;53.236;5.704;2022-11-15T08:40:09;38.35;;;30.88;;
51718;SDS011;37795;53.236;5.704;2022-11-15T08:42:35;45.90;;;31.17;;
51718;SDS011;37795;53.236;5.704;2022-11-15T08:45:01;31.60;;;27.08;;
51718;SDS011;37795;53.236;5.704;2022-11-15T08:47:27;33.38;;;27.92;;
51718;SDS011;37795;53.236;5.704;2022-11-15T08:49:53;32.30;;;26.27;;
51718;SDS011;37795;53.236;5.704;2022-11-15T08:52:19;33.17;;;28.38;;
51718;SDS011;37795;53.236;5.704;2022-11-15T08:54:44;35.70;;;27.98;;
51718;SDS011;37795;53.236;5.704;2022-11-15T08:57:10;36.40;;;28.23;;
51718;SDS011;37795;53.236;5.704;2022-11-15T08:59:36;35.10;;;27.38;;
51718;SDS011;37795;53.236;5.704;2022-11-15T09:02:02;30.25;;;26.15;;
51718;SDS011;37795;53.236;5.704;2022-11-15T09:04:28;36.25;;;27.20;;
51718;SDS011;37795;53.236;5.704;2022-11-15T09:06:54;33.40;;;27.45;;
51718;SDS011;37795;53.236;5.704;2022-11-15T09:09:20;45.70;;;28.85;;
51718;SDS011;37795;53.236;5.704;2022-11-15T09:11:46;32.77;;;29.13;;
51718;SDS011;37795;53.236;5.704;2022-11-15T09:14:12;36.17;;;27.05;;
51718;SDS011;37795;53.236;5.704;2022-11-15T09:16:38;31.08;;;26.88;;
51718;SDS011;37795;53.236;5.704;2022-11-15T09:19:04;35.60;;;26.77;;
51718;SDS011;37795;53.236;5.704;2022-11-15T09:21:30;28.43;;;23.53;;
51718;SDS011;37795;53.236;5.704;2022-11-15T09:23:56;32.80;;;26.93;;
51718;SDS011;37795;53.236;5.704;2022-11-15T09:26:22;32.97;;;26.65;;
51718;SDS011;37795;53.236;5.704;2022-11-15T09:28:48;36.40;;;26.77;;
51718;SDS011;37795;53.236;5.704;2022-11-15T09:31:13;29.42;;;25.73;;
51718;SDS011;37795;53.236;5.704;2022-11-15T09:33:39;28.00;;;24.45;;
51718;SDS011;37795;53.236;5.704;2022-11-15T09:36:08;27.20;;;23.85;;
51718;SDS011;37795;53.236;5.704;2022-11-15T09:38:34;28.00;;;22.15;;
51718;SDS011;37795;53.236;5.704;2022-11-15T09:41:17;28.50;;;23.08;;
51718;SDS011;37795;53.236;5.704;2022-11-15T09:49:22;35.10;;;25.90;;
51718;SDS011;37795;53.236;5.704;2022-11-15T09:51:52;35.53;;;26.02;;
51718;SDS011;37795;53.236;5.704;2022-11-15T09:54:29;28.88;;;24.23;;
51718;SDS011;37795;53.236;5.704;2022-11-15T09:57:12;29.45;;;22.98;;
51718;SDS011;37795;53.236;5.704;2022-11-15T10:02:31;29.80;;;24.17;;
51718;SDS011;37795;53.236;5.704;2022-11-15T10:04:58;28.27;;;23.17;;
51718;SDS011;37795;53.236;5.704;2022-11-15T10:07:31;25.67;;;22.45;;
51718;SDS011;37795;53.236;5.704;2022-11-15T10:10:04;31.98;;;23.65;;
51718;SDS011;37795;53.236;5.704;2022-11-15T10:12:43;28.08;;;23.35;;
51718;SDS011;37795;53.236;5.704;2022-11-15T10:15:14;25.40;;;19.77;;
51718;SDS011;37795;53.236;5.704;2022-11-15T10:20:27;30.58;;;24.02;;
51718;SDS011;37795;53.236;5.704;2022-11-15T10:22:55;24.17;;;21.50;;
51718;SDS011;37795;53.236;5.704;2022-11-15T10:25:26;27.77;;;23.30;;
51718;SDS011;37795;53.236;5.704;2022-11-15T10:27:57;26.42;;;23.58;;
51718;SDS011;37795;53.236;5.704;2022-11-15T10:30:39;26.17;;;23.35;;
51718;SDS011;37795;53.236;5.704;2022-11-15T10:33:20;26.25;;;23.13;;
51718;SDS011;37795;53.236;5.704;2022-11-15T10:41:13;29.00;;;23.35;;
51718;SDS011;37795;53.236;5.704;2022-11-15T10:43:44;29.92;;;22.75;;
51718;SDS011;37795;53.236;5.704;2022-11-15T10:46:26;25.80;;;21.15;;
51718;SDS011;37795;53.236;5.704;2022-11-15T10:48:51;32.15;;;22.27;;
51718;SDS011;37795;53.236;5.704;2022-11-15T10:51:21;22.67;;;18.53;;
51718;SDS011;37795;53.236;5.704;2022-11-15T10:59:23;30.52;;;23.45;;
51718;SDS011;37795;53.236;5.704;2022-11-15T11:01:55;24.80;;;20.17;;
51718;SDS011;37795;53.236;5.704;2022-11-15T11:04:22;23.90;;;20.75;;
51718;SDS011;37795;53.236;5.704;2022-11-15T11:09:32;20.70;;;18.48;;
51718;SDS011;37795;53.236;5.704;2022-11-15T11:12:00;25.70;;;17.92;;
51718;SDS011;37795;53.236;5.704;2022-11-15T11:14:31;21.23;;;18.98;;
51718;SDS011;37795;53.236;5.704;2022-11-15T11:25:22;22.07;;;17.07;;
51718;SDS011;37795;53.236;5.704;2022-11-15T11:33:30;26.00;;;18.13;;
51718;SDS011;37795;53.236;5.704;2022-11-15T11:36:33;19.10;;;15.38;;
51718;SDS011;37795;53.236;5.704;2022-11-15T11:39:16;18.42;;;15.75;;
51718;SDS011;37795;53.236;5.704;2022-11-15T11:44:33;17.30;;;14.47;;
51718;SDS011;37795;53.236;5.704;2022-11-15T11:47:24;15.73;;;13.20;;
51718;SDS011;37795;53.236;5.704;2022-11-15T11:50:03;18.73;;;14.48;;
51718;SDS011;37795;53.236;5.704;2022-11-15T11:55:34;15.50;;;13.18;;
51718;SDS011;37795;53.236;5.704;2022-11-15T12:01:05;14.80;;;13.15;;
51718;SDS011;37795;53.236;5.704;2022-11-15T12:08:48;18.75;;;13.00;;
51718;SDS011;37795;53.236;5.704;2022-11-15T12:11:35;16.23;;;13.50;;
51718;SDS011;37795;53.236;5.704;2022-11-15T12:17:22;15.00;;;11.82;;
51718;SDS011;37795;53.236;5.704;2022-11-15T12:19:51;18.23;;;12.02;;
51718;SDS011;37795;53.236;5.704;2022-11-15T12:24:51;13.27;;;11.18;;
51718;SDS011;37795;53.236;5.704;2022-11-15T12:27:20;14.27;;;12.70;;
51718;SDS011;37795;53.236;5.704;2022-11-15T12:29:56;19.35;;;14.20;;
51718;SDS011;37795;53.236;5.704;2022-11-15T12:35:00;19.85;;;12.00;;
51718;SDS011;37795;53.236;5.704;2022-11-15T12:42:41;16.30;;;11.32;;
51718;SDS011;37795;53.236;5.704;2022-11-15T12:45:26;15.82;;;10.65;;
51718;SDS011;37795;53.236;5.704;2022-11-15T12:48:44;16.08;;;11.27;;
51718;SDS011;37795;53.236;5.704;2022-11-15T12:56:35;8.55;;;6.18;;
51718;SDS011;37795;53.236;5.704;2022-11-15T13:02:00;8.38;;;5.63;;
51718;SDS011;37795;53.236;5.704;2022-11-15T13:11:57;5.93;;;5.20;;
51718;SDS011;37795;53.236;5.704;2022-11-15T13:14:44;5.60;;;5.05;;
51718;SDS011;37795;53.236;5.704;2022-11-15T13:17:17;7.63;;;4.40;;
51718;SDS011;37795;53.236;5.704;2022-11-15T13:19:59;5.53;;;4.65;;
51718;SDS011;37795;53.236;5.704;2022-11-15T13:28:31;9.88;;;3.85;;
51718;SDS011;37795;53.236;5.704;2022-11-15T13:31:00;6.85;;;3.25;;
51718;SDS011;37795;53.236;5.704;2022-11-15T13:33:35;6.47;;;4.28;;
51718;SDS011;37795;53.236;5.704;2022-11-15T13:36:19;4.65;;;3.20;;
51718;SDS011;37795;53.236;5.704;2022-11-15T13:38:57;4.03;;;3.63;;
51718;SDS011;37795;53.236;5.704;2022-11-15T13:41:34;8.65;;;3.90;;
51718;SDS011;37795;53.236;5.704;2022-11-15T13:44:01;5.72;;;3.95;;
51718;SDS011;37795;53.236;5.704;2022-11-15T13:46:29;7.07;;;3.83;;
51718;SDS011;37795;53.236;5.704;2022-11-15T13:49:18;5.40;;;4.10;;
51718;SDS011;37795;53.236;5.704;2022-11-15T13:54:13;4.38;;;3.80;;
51718;SDS011;37795;53.236;5.704;2022-11-15T13:57:01;5.43;;;4.28;;
51718;SDS011;37795;53.236;5.704;2022-11-15T13:59:33;4.00;;;3.55;;
51718;SDS011;37795;53.236;5.704;2022-11-15T14:02:46;5.80;;;3.92;;
51718;SDS011;37795;53.236;5.704;2022-11-15T14:04:52;5.65;;;3.90;;
51718;SDS011;37795;53.236;5.704;2022-11-15T14:07:21;5.65;;;4.07;;
51718;SDS011;37795;53.236;5.704;2022-11-15T14:09:48;6.22;;;4.20;;
51718;SDS011;37795;53.236;5.704;2022-11-15T14:12:34;5.75;;;4.20;;
51718;SDS011;37795;53.236;5.704;2022-11-15T14:17:44;5.68;;;4.80;;
51718;SDS011;37795;53.236;5.704;2022-11-15T14:23:03;5.35;;;4.40;;
51718;SDS011;37795;53.236;5.704;2022-11-15T14:25:53;5.43;;;4.35;;
51718;SDS011;37795;53.236;5.704;2022-11-15T14:30:49;9.00;;;4.13;;
51718;SDS011;37795;53.236;5.704;2022-11-15T14:33:19;5.30;;;3.80;;
51718;SDS011;37795;53.236;5.704;2022-11-15T14:35:54;6.75;;;4.45;;
51718;SDS011;37795;53.236;5.704;2022-11-15T14:38:22;4.72;;;4.22;;
51718;SDS011;37795;53.236;5.704;2022-11-15T14:40:49;4.53;;;4.00;;
51718;SDS011;37795;53.236;5.704;2022-11-15T14:43:15;5.63;;;4.20;;
51718;SDS011;37795;53.236;5.704;2022-11-15T14:45:41;5.03;;;4.30;;
51718;SDS011;37795;53.236;5.704;2022-11-15T14:48:07;4.72;;;3.97;;
51718;SDS011;37795;53.236;5.704;2022-11-15T14:50:33;4.22;;;3.40;;
51718;SDS011;37795;53.236;5.704;2022-11-15T14:53:00;5.57;;;3.90;;
51718;SDS011;37795;53.236;5.704;2022-11-15T14:55:35;5.10;;;4.00;;
51718;SDS011;37795;53.236;5.704;2022-11-15T14:58:01;5.00;;;3.25;;
51718;SDS011;37795;53.236;5.704;2022-11-15T15:00:31;4.78;;;3.95;;
51718;SDS011;37795;53.236;5.704;2022-11-15T15:02:57;5.97;;;3.50;;
51718;SDS011;37795;53.236;5.704;2022-11-15T15:08:06;3.65;;;3.30;;
51718;SDS011;37795;53.236;5.704;2022-11-15T15:10:33;4.45;;;3.80;;
51718;SDS011;37795;53.236;5.704;2022-11-15T15:13:01;5.32;;;4.00;;
51718;SDS011;37795;53.236;5.704;2022-11-15T15:15:35;5.65;;;3.90;;
51718;SDS011;37795;53.236;5.704;2022-11-15T15:18:02;6.28;;;3.08;;
51718;SDS011;37795;53.236;5.704;2022-11-15T15:20:30;4.97;;;3.40;;
51718;SDS011;37795;53.236;5.704;2022-11-15T15:22:57;3.27;;;2.63;;
51718;SDS011;37795;53.236;5.704;2022-11-15T15:27:53;5.83;;;3.10;;
51718;SDS011;37795;53.236;5.704;2022-11-15T15:30:20;3.60;;;2.92;;
51718;SDS011;37795;53.236;5.704;2022-11-15T15:32:46;6.82;;;3.40;;
51718;SDS011;37795;53.236;5.704;2022-11-15T15:35:12;5.40;;;3.13;;
51718;SDS011;37795;53.236;5.704;2022-11-15T15:37:39;5.28;;;3.22;;
51718;SDS011;37795;53.236;5.704;2022-11-15T15:40:24;5.10;;;3.10;;
51718;SDS011;37795;53.236;5.704;2022-11-15T15:42:51;3.83;;;2.65;;
51718;SDS011;37795;53.236;5.704;2022-11-15T15:45:17;5.07;;;2.80;;
51718;SDS011;37795;53.236;5.704;2022-11-15T15:47:43;7.93;;;3.45;;
51718;SDS011;37795;53.236;5.704;2022-11-15T15:50:23;3.92;;;3.10;;
51718;SDS011;37795;53.236;5.704;2022-11-15T15:52:57;5.07;;;2.88;;
51718;SDS011;37795;53.236;5.704;2022-11-15T15:55:24;3.45;;;2.58;;
51718;SDS011;37795;53.236;5.704;2022-11-15T15:57:50;8.07;;;2.85;;
51718;SDS011;37795;53.236;5.704;2022-11-15T16:00:16;5.95;;;2.63;;
51718;SDS011;37795;53.236;5.704;2022-11-15T16:02:43;4.22;;;3.00;;
51718;SDS011;37795;53.236;5.704;2022-11-15T16:05:09;7.00;;;3.90;;
51718;SDS011;37795;53.236;5.704;2022-11-15T16:07:35;5.07;;;3.80;;
51718;SDS011;37795;53.236;5.704;2022-11-15T16:10:03;5.80;;;3.20;;
51718;SDS011;37795;53.236;5.704;2022-11-15T16:12:38;6.40;;;2.92;;
51718;SDS011;37795;53.236;5.704;2022-11-15T16:15:04;3.83;;;2.97;;
51718;SDS011;37795;53.236;5.704;2022-11-15T16:17:31;4.43;;;2.42;;
51718;SDS011;37795;53.236;5.704;2022-11-15T16:20:21;3.83;;;2.45;;
51718;SDS011;37795;53.236;5.704;2022-11-15T16:23:08;2.88;;;2.42;;
51718;SDS011;37795;53.236;5.704;2022-11-15T16:25:45;4.70;;;2.78;;
51718;SDS011;37795;53.236;5.704;2022-11-15T16:28:16;3.95;;;3.10;;
51718;SDS011;37795;53.236;5.704;2022-11-15T16:30:47;3.78;;;2.92;;
51718;SDS011;37795;53.236;5.704;2022-11-15T16:33:13;3.88;;;3.00;;
51718;SDS011;37795;53.236;5.704;2022-11-15T16:35:39;5.00;;;3.22;;
51718;SDS011;37795;53.236;5.704;2022-11-15T16:38:05;4.68;;;3.20;;
51718;SDS011;37795;53.236;5.704;2022-11-15T16:40:33;6.00;;;3.72;;
51718;SDS011;37795;53.236;5.704;2022-11-15T16:43:00;5.57;;;3.78;;
51718;SDS011;37795;53.236;5.704;2022-11-15T16:45:27;4.00;;;3.20;;
51718;SDS011;37795;53.236;5.704;2022-11-15T16:47:53;5.22;;;3.38;;
51718;SDS011;37795;53.236;5.704;2022-11-15T16:50:23;4.60;;;4.00;;
51718;SDS011;37795;53.236;5.704;2022-11-15T16:52:52;5.53;;;3.72;;
51718;SDS011;37795;53.236;5.704;2022-11-15T16:55:19;4.03;;;3.63;;
51718;SDS011;37795;53.236;5.704;2022-11-15T16:57:46;6.07;;;4.45;;
51718;SDS011;37795;53.236;5.704;2022-11-15T17:00:11;4.40;;;4.00;;
51718;SDS011;37795;53.236;5.704;2022-11-15T17:02:42;5.93;;;4.47;;
51718;SDS011;37795;53.236;5.704;2022-11-15T17:05:09;7.57;;;4.25;;
51718;SDS011;37795;53.236;5.704;2022-11-15T17:07:35;6.65;;;4.20;;
51718;SDS011;37795;53.236;5.704;2022-11-15T17:10:01;4.75;;;3.65;;